WXM80 ListenWXM80 Stop

You find our weather info also at:

UK Metoffice

WeatherCloud

Weather Underground

Northeastern Weather Network

AWEKAS

Citizen Weather Observer Program (CWOP)

HAMweather, WeatherForYou, PWS Weather


Weather Underground History page Text

Daily Summary for August 6, 2017 Units:  Both    English   Metric
« Previous Day
Next Day »
Daily Weekly Monthly Yearly Custom
  High: Low: Average:
Temperature: 78.3 °F /  25.7 °C 65.1 °F /  18.4 °C 71 °F /  21.7 °C
Dew Point: 61.1 °F /  16.2 °C 56.2 °F /  13.4 °C 58.1 °F /  14.5 °C
Humidity: 76 % 49 % 65 %
Wind Speed: 7.9 mph /  12.7 km/h - 2.4 mph /  3.9 km/h
Wind Gust: 15.0 mph /  24.1 km/h - -
Wind:- - West
Pressure: 30.07 in /  1018.2 hPa 29.91 in /  1012.8 hPa -
Precipitation: 0.01 in /  0.25 mm    
Historical Graphs
 
 
Tabular Data for August 6, 2017
Time Temperature Dew Point Pressure Wind Wind Speed Wind Gust Humidity Rainfall Rate (Hourly)
00:00 70.1 °F /  21.2 °C 58.2 °F /  14.6 °C 29.92 in /  1013.1 hPa West 2.1 mph /  3.4 km/h 4.6 mph /  7.4 km/h 66 % 0.00 in /  0 mm
00:05 70.0 °F /  21.1 °C 58.1 °F /  14.5 °C 29.92 in /  1013.1 hPa WNW 2.6 mph /  4.2 km/h 6.9 mph /  11.1 km/h 66 % 0.00 in /  0 mm
00:10 69.9 °F /  21.1 °C 58.0 °F /  14.4 °C 29.92 in /  1013.1 hPa NW 4.5 mph /  7.2 km/h 7.0 mph /  11.3 km/h 66 % 0.00 in /  0 mm
00:15 69.8 °F /  21 °C 57.9 °F /  14.4 °C 29.92 in /  1013.1 hPa SW 4.1 mph /  6.6 km/h 7.0 mph /  11.3 km/h 66 % 0.00 in /  0 mm
00:20 69.7 °F /  20.9 °C 57.8 °F /  14.3 °C 29.92 in /  1013.1 hPa West 3.1 mph /  5 km/h 8.0 mph /  12.9 km/h 66 % 0.00 in /  0 mm
00:25 69.7 °F /  20.9 °C 57.8 °F /  14.3 °C 29.92 in /  1013.1 hPa WNW 1.5 mph /  2.4 km/h 9.2 mph /  14.8 km/h 66 % 0.00 in /  0 mm
00:30 69.7 °F /  20.9 °C 57.8 °F /  14.3 °C 29.91 in /  1012.8 hPa WNW 3.6 mph /  5.8 km/h 8.1 mph /  13 km/h 66 % 0.00 in /  0 mm
00:35 69.7 °F /  20.9 °C 58.3 °F /  14.6 °C 29.92 in /  1013.1 hPa NW 1.3 mph /  2.1 km/h 3.5 mph /  5.6 km/h 67 % 0.00 in /  0 mm
00:40 69.7 °F /  20.9 °C 58.7 °F /  14.8 °C 29.91 in /  1012.8 hPa WSW 4.5 mph /  7.2 km/h 9.2 mph /  14.8 km/h 68 % 0.00 in /  0 mm
00:45 69.6 °F /  20.9 °C 58.6 °F /  14.8 °C 29.91 in /  1012.8 hPa NW 2.2 mph /  3.5 km/h 6.9 mph /  11.1 km/h 68 % 0.00 in /  0 mm
00:50 69.5 °F /  20.8 °C 58.1 °F /  14.5 °C 29.92 in /  1013.1 hPa West 3.5 mph /  5.6 km/h 8.1 mph /  13 km/h 67 % 0.00 in /  0 mm
00:55 69.5 °F /  20.8 °C 58.5 °F /  14.7 °C 29.91 in /  1012.8 hPa WNW 3.3 mph /  5.3 km/h 5.8 mph /  9.3 km/h 68 % 0.00 in /  0 mm
01:00 69.4 °F /  20.8 °C 58.4 °F /  14.7 °C 29.92 in /  1013.1 hPa WNW 4.4 mph /  7.1 km/h 10.4 mph /  16.7 km/h 68 % 0.00 in /  0 mm
01:05 69.3 °F /  20.7 °C 58.3 °F /  14.6 °C 29.91 in /  1012.8 hPa NW 3.7 mph /  6 km/h 5.0 mph /  8 km/h 68 % 0.00 in /  0 mm
01:10 69.3 °F /  20.7 °C 58.3 °F /  14.6 °C 29.91 in /  1012.8 hPa West 3.7 mph /  6 km/h 8.1 mph /  13 km/h 68 % 0.00 in /  0 mm
01:15 69.2 °F /  20.7 °C 58.2 °F /  14.6 °C 29.92 in /  1013.1 hPa North 5.1 mph /  8.2 km/h 8.1 mph /  13 km/h 68 % 0.00 in /  0 mm
01:20 69.1 °F /  20.6 °C 58.1 °F /  14.5 °C 29.91 in /  1012.8 hPa NW 4.0 mph /  6.4 km/h 8.0 mph /  12.9 km/h 68 % 0.00 in /  0 mm
01:25 69.1 °F /  20.6 °C 58.1 °F /  14.5 °C 29.92 in /  1013.1 hPa NW 2.9 mph /  4.7 km/h 10.4 mph /  16.7 km/h 68 % 0.00 in /  0 mm
01:30 69.0 °F /  20.6 °C 58.0 °F /  14.4 °C 29.91 in /  1012.8 hPa West 5.5 mph /  8.9 km/h 11.5 mph /  18.5 km/h 68 % 0.00 in /  0 mm
01:35 69.0 °F /  20.6 °C 58.0 °F /  14.4 °C 29.91 in /  1012.8 hPa WNW 2.5 mph /  4 km/h 6.9 mph /  11.1 km/h 68 % 0.00 in /  0 mm
01:40 68.9 °F /  20.5 °C 57.9 °F /  14.4 °C 29.91 in /  1012.8 hPa WNW 3.0 mph /  4.8 km/h 6.9 mph /  11.1 km/h 68 % 0.00 in /  0 mm
01:45 68.9 °F /  20.5 °C 58.3 °F /  14.6 °C 29.92 in /  1013.1 hPa West 0.8 mph /  1.3 km/h 4.0 mph /  6.4 km/h 69 % 0.00 in /  0 mm
01:50 68.8 °F /  20.4 °C 58.2 °F /  14.6 °C 29.92 in /  1013.1 hPa WNW 3.4 mph /  5.5 km/h 6.9 mph /  11.1 km/h 69 % 0.00 in /  0 mm
01:55 68.7 °F /  20.4 °C 58.1 °F /  14.5 °C 29.92 in /  1013.1 hPa West 1.5 mph /  2.4 km/h 8.1 mph /  13 km/h 69 % 0.00 in /  0 mm
02:00 68.6 °F /  20.3 °C 58.0 °F /  14.4 °C 29.92 in /  1013.1 hPa West 1.2 mph /  1.9 km/h 3.5 mph /  5.6 km/h 69 % 0.00 in /  0 mm
02:05 68.5 °F /  20.3 °C 57.9 °F /  14.4 °C 29.92 in /  1013.1 hPa WNW 5.1 mph /  8.2 km/h 11.5 mph /  18.5 km/h 69 % 0.00 in /  0 mm
02:10 68.4 °F /  20.2 °C 58.2 °F /  14.6 °C 29.92 in /  1013.1 hPa West 3.5 mph /  5.6 km/h 9.2 mph /  14.8 km/h 70 % 0.00 in /  0 mm
02:15 68.3 °F /  20.2 °C 57.7 °F /  14.3 °C 29.92 in /  1013.1 hPa West 5.3 mph /  8.5 km/h 10.4 mph /  16.7 km/h 69 % 0.00 in /  0 mm
02:20 68.3 °F /  20.2 °C 58.1 °F /  14.5 °C 29.92 in /  1013.1 hPa WNW 1.0 mph /  1.6 km/h 3.5 mph /  5.6 km/h 70 % 0.00 in /  0 mm
02:25 68.2 °F /  20.1 °C 58.0 °F /  14.4 °C 29.92 in /  1013.1 hPa West 3.6 mph /  5.8 km/h 10.4 mph /  16.7 km/h 70 % 0.00 in /  0 mm
02:30 68.1 °F /  20.1 °C 57.9 °F /  14.4 °C 29.92 in /  1013.1 hPa West 1.1 mph /  1.8 km/h 10.4 mph /  16.7 km/h 70 % 0.00 in /  0 mm
02:40 68.0 °F /  20 °C 57.8 °F /  14.3 °C 29.92 in /  1013.1 hPa WNW 1.4 mph /  2.3 km/h 4.6 mph /  7.4 km/h 70 % 0.00 in /  0 mm
02:46 68.0 °F /  20 °C 58.2 °F /  14.6 °C 29.92 in /  1013.1 hPa West 1.0 mph /  1.6 km/h 8.0 mph /  12.9 km/h 71 % 0.00 in /  0 mm
02:51 67.9 °F /  19.9 °C 58.1 °F /  14.5 °C 29.92 in /  1013.1 hPa West 2.0 mph /  3.2 km/h 5.0 mph /  8 km/h 71 % 0.00 in /  0 mm
02:56 67.7 °F /  19.8 °C 58.0 °F /  14.4 °C 29.92 in /  1013.1 hPa WSW 2.0 mph /  3.2 km/h 10.0 mph /  16.1 km/h 71 % 0.00 in /  0 mm
03:01 67.6 °F /  19.8 °C 57.9 °F /  14.4 °C 29.92 in /  1013.1 hPa WNW 2.0 mph /  3.2 km/h 9.2 mph /  14.8 km/h 71 % 0.00 in /  0 mm
03:06 67.6 °F /  19.8 °C 57.9 °F /  14.4 °C 29.92 in /  1013.1 hPa WNW 4.9 mph /  7.9 km/h 10.4 mph /  16.7 km/h 71 % 0.00 in /  0 mm
03:11 67.5 °F /  19.7 °C 57.8 °F /  14.3 °C 29.92 in /  1013.1 hPa WSW 4.5 mph /  7.2 km/h 9.2 mph /  14.8 km/h 71 % 0.00 in /  0 mm
03:16 67.4 °F /  19.7 °C 57.7 °F /  14.3 °C 29.92 in /  1013.1 hPa WNW 2.8 mph /  4.5 km/h 9.2 mph /  14.8 km/h 71 % 0.00 in /  0 mm
03:21 67.3 °F /  19.6 °C 57.2 °F /  14 °C 29.92 in /  1013.1 hPa WNW 3.0 mph /  4.8 km/h 8.1 mph /  13 km/h 70 % 0.00 in /  0 mm
03:26 67.3 °F /  19.6 °C 57.2 °F /  14 °C 29.92 in /  1013.1 hPa West 4.4 mph /  7.1 km/h 9.2 mph /  14.8 km/h 70 % 0.00 in /  0 mm
03:31 67.2 °F /  19.6 °C 57.1 °F /  13.9 °C 29.93 in /  1013.4 hPa West 4.0 mph /  6.4 km/h 6.9 mph /  11.1 km/h 70 % 0.00 in /  0 mm
03:36 67.2 °F /  19.6 °C 57.1 °F /  13.9 °C 29.93 in /  1013.4 hPa WSW 2.3 mph /  3.7 km/h 4.6 mph /  7.4 km/h 70 % 0.00 in /  0 mm
03:41 67.1 °F /  19.5 °C 57.0 °F /  13.9 °C 29.93 in /  1013.4 hPa WNW 3.7 mph /  6 km/h 8.0 mph /  12.9 km/h 70 % 0.00 in /  0 mm
03:46 67.1 °F /  19.5 °C 56.6 °F /  13.7 °C 29.94 in /  1013.8 hPa West 3.5 mph /  5.6 km/h 11.5 mph /  18.5 km/h 69 % 0.00 in /  0 mm
03:51 67.0 °F /  19.4 °C 56.9 °F /  13.8 °C 29.94 in /  1013.8 hPa WNW 3.5 mph /  5.6 km/h 9.2 mph /  14.8 km/h 70 % 0.00 in /  0 mm
03:56 67.0 °F /  19.4 °C 56.9 °F /  13.8 °C 29.94 in /  1013.8 hPa SW 3.5 mph /  5.6 km/h 7.0 mph /  11.3 km/h 70 % 0.00 in /  0 mm
04:01 66.9 °F /  19.4 °C 56.8 °F /  13.8 °C 29.94 in /  1013.8 hPa WNW 3.0 mph /  4.8 km/h 8.1 mph /  13 km/h 70 % 0.00 in /  0 mm
04:07 66.9 °F /  19.4 °C 56.8 °F /  13.8 °C 29.94 in /  1013.8 hPa WSW 4.7 mph /  7.6 km/h 9.2 mph /  14.8 km/h 70 % 0.00 in /  0 mm
04:12 66.8 °F /  19.3 °C 56.7 °F /  13.7 °C 29.95 in /  1014.1 hPa SSW 7.3 mph /  11.7 km/h 12.7 mph /  20.4 km/h 70 % 0.00 in /  0 mm
04:17 66.8 °F /  19.3 °C 56.7 °F /  13.7 °C 29.95 in /  1014.1 hPa WSW 1.4 mph /  2.3 km/h 5.8 mph /  9.3 km/h 70 % 0.00 in /  0 mm
04:22 66.7 °F /  19.3 °C 56.2 °F /  13.4 °C 29.95 in /  1014.1 hPa West 4.5 mph /  7.2 km/h 9.2 mph /  14.8 km/h 69 % 0.00 in /  0 mm
04:27 66.7 °F /  19.3 °C 56.2 °F /  13.4 °C 29.95 in /  1014.1 hPa NNW 3.5 mph /  5.6 km/h 11.5 mph /  18.5 km/h 69 % 0.00 in /  0 mm
04:32 66.7 °F /  19.3 °C 56.6 °F /  13.7 °C 29.95 in /  1014.1 hPa NW 6.6 mph /  10.6 km/h 13.8 mph /  22.2 km/h 70 % 0.00 in /  0 mm
04:37 66.6 °F /  19.2 °C 56.9 °F /  13.8 °C 29.95 in /  1014.1 hPa WSW 7.5 mph /  12.1 km/h 10.4 mph /  16.7 km/h 71 % 0.00 in /  0 mm
04:42 66.6 °F /  19.2 °C 57.3 °F /  14.1 °C 29.95 in /  1014.1 hPa NW 7.9 mph /  12.7 km/h 10.4 mph /  16.7 km/h 72 % 0.00 in /  0 mm
04:47 66.5 °F /  19.2 °C 57.6 °F /  14.2 °C 29.95 in /  1014.1 hPa WNW 2.4 mph /  3.9 km/h 4.6 mph /  7.4 km/h 73 % 0.00 in /  0 mm
04:52 66.3 °F /  19.1 °C 57.0 °F /  13.9 °C 29.95 in /  1014.1 hPa WNW 3.4 mph /  5.5 km/h 10.4 mph /  16.7 km/h 72 % 0.00 in /  0 mm
04:57 66.2 °F /  19 °C 56.9 °F /  13.8 °C 29.95 in /  1014.1 hPa NNW 7.1 mph /  11.4 km/h 10.4 mph /  16.7 km/h 72 % 0.00 in /  0 mm
05:02 66.1 °F /  18.9 °C 56.8 °F /  13.8 °C 29.96 in /  1014.4 hPa West 1.2 mph /  1.9 km/h 3.5 mph /  5.6 km/h 72 % 0.00 in /  0 mm
05:07 65.9 °F /  18.8 °C 56.2 °F /  13.4 °C 29.96 in /  1014.4 hPa NW 7.1 mph /  11.4 km/h 10.4 mph /  16.7 km/h 71 % 0.00 in /  0 mm
05:12 65.9 °F /  18.8 °C 57.0 °F /  13.9 °C 29.96 in /  1014.4 hPa West 1.7 mph /  2.7 km/h 4.6 mph /  7.4 km/h 73 % 0.00 in /  0 mm
05:17 65.8 °F /  18.8 °C 56.9 °F /  13.8 °C 29.96 in /  1014.4 hPa NW 2.5 mph /  4 km/h 6.9 mph /  11.1 km/h 73 % 0.00 in /  0 mm
05:22 65.7 °F /  18.7 °C 56.8 °F /  13.8 °C 29.97 in /  1014.8 hPa NW 3.7 mph /  6 km/h 8.1 mph /  13 km/h 73 % 0.00 in /  0 mm
05:28 65.6 °F /  18.7 °C 56.7 °F /  13.7 °C 29.96 in /  1014.4 hPa West 1.3 mph /  2.1 km/h 3.5 mph /  5.6 km/h 73 % 0.00 in /  0 mm
05:33 65.4 °F /  18.6 °C 56.9 °F /  13.8 °C 29.96 in /  1014.4 hPa SW 1.9 mph /  3.1 km/h 7.0 mph /  11.3 km/h 74 % 0.00 in /  0 mm
05:38 65.4 °F /  18.6 °C 56.5 °F /  13.6 °C 29.97 in /  1014.8 hPa WNW 4.3 mph /  6.9 km/h 8.1 mph /  13 km/h 73 % 0.00 in /  0 mm
05:43 65.3 °F /  18.5 °C 56.8 °F /  13.8 °C 29.96 in /  1014.4 hPa WSW 5.4 mph /  8.7 km/h 8.1 mph /  13 km/h 74 % 0.00 in /  0 mm
05:48 65.2 °F /  18.4 °C 56.3 °F /  13.5 °C 29.97 in /  1014.8 hPa West 5.3 mph /  8.5 km/h 8.1 mph /  13 km/h 73 % 0.00 in /  0 mm
05:53 65.3 °F /  18.5 °C 56.8 °F /  13.8 °C 29.97 in /  1014.8 hPa West 4.3 mph /  6.9 km/h 10.4 mph /  16.7 km/h 74 % 0.00 in /  0 mm
05:58 65.3 °F /  18.5 °C 56.8 °F /  13.8 °C 29.98 in /  1015.1 hPa WNW 3.4 mph /  5.5 km/h 9.0 mph /  14.5 km/h 74 % 0.00 in /  0 mm
06:03 65.3 °F /  18.5 °C 56.8 °F /  13.8 °C 29.98 in /  1015.1 hPa WSW 1.0 mph /  1.6 km/h 5.8 mph /  9.3 km/h 74 % 0.00 in /  0 mm
06:08 65.2 °F /  18.4 °C 56.3 °F /  13.5 °C 29.97 in /  1014.8 hPa SW 4.0 mph /  6.4 km/h 4.0 mph /  6.4 km/h 73 % 0.00 in /  0 mm
06:13 65.3 °F /  18.5 °C 56.4 °F /  13.6 °C 29.97 in /  1014.8 hPa West 4.9 mph /  7.9 km/h 11.5 mph /  18.5 km/h 73 % 0.00 in /  0 mm
06:18 65.3 °F /  18.5 °C 56.4 °F /  13.6 °C 29.98 in /  1015.1 hPa WNW 3.2 mph /  5.1 km/h 9.2 mph /  14.8 km/h 73 % 0.00 in /  0 mm
06:24 65.3 °F /  18.5 °C 56.4 °F /  13.6 °C 29.98 in /  1015.1 hPa WNW 4.4 mph /  7.1 km/h 9.2 mph /  14.8 km/h 73 % 0.00 in /  0 mm
06:29 65.3 °F /  18.5 °C 56.4 °F /  13.6 °C 29.98 in /  1015.1 hPa WNW 5.2 mph /  8.4 km/h 8.1 mph /  13 km/h 73 % 0.00 in /  0 mm
06:34 65.3 °F /  18.5 °C 56.8 °F /  13.8 °C 29.98 in /  1015.1 hPa WNW 5.3 mph /  8.5 km/h 9.2 mph /  14.8 km/h 74 % 0.00 in /  0 mm
06:39 65.4 °F /  18.6 °C 56.9 °F /  13.8 °C 29.98 in /  1015.1 hPa West 3.4 mph /  5.5 km/h 6.9 mph /  11.1 km/h 74 % 0.00 in /  0 mm
06:44 65.4 °F /  18.6 °C 56.5 °F /  13.6 °C 29.98 in /  1015.1 hPa WNW 4.0 mph /  6.4 km/h 5.8 mph /  9.3 km/h 73 % 0.00 in /  0 mm
06:49 65.5 °F /  18.6 °C 56.6 °F /  13.7 °C 29.99 in /  1015.5 hPa WNW 2.6 mph /  4.2 km/h 8.1 mph /  13 km/h 73 % 0.00 in /  0 mm
06:54 65.6 °F /  18.7 °C 57.1 °F /  13.9 °C 29.99 in /  1015.5 hPa WNW 5.5 mph /  8.9 km/h 9.2 mph /  14.8 km/h 74 % 0.00 in /  0 mm
06:59 65.6 °F /  18.7 °C 56.7 °F /  13.7 °C 29.99 in /  1015.5 hPa NW 5.0 mph /  8 km/h 9.0 mph /  14.5 km/h 73 % 0.00 in /  0 mm
07:04 65.7 °F /  18.7 °C 56.8 °F /  13.8 °C 30.00 in /  1015.8 hPa NE 5.0 mph /  8 km/h 10.4 mph /  16.7 km/h 73 % 0.00 in /  0 mm
07:09 65.8 °F /  18.8 °C 57.3 °F /  14.1 °C 30.00 in /  1015.8 hPa West 4.3 mph /  6.9 km/h 6.9 mph /  11.1 km/h 74 % 0.00 in /  0 mm
07:14 65.9 °F /  18.8 °C 57.4 °F /  14.1 °C 30.00 in /  1015.8 hPa West 2.6 mph /  4.2 km/h 10.4 mph /  16.7 km/h 74 % 0.00 in /  0 mm
07:19 66.1 °F /  18.9 °C 57.2 °F /  14 °C 30.00 in /  1015.8 hPa WNW 5.3 mph /  8.5 km/h 11.5 mph /  18.5 km/h 73 % 0.00 in /  0 mm
07:24 66.3 °F /  19.1 °C 57.4 °F /  14.1 °C 30.00 in /  1015.8 hPa NW 3.4 mph /  5.5 km/h 15.0 mph /  24.1 km/h 73 % 0.00 in /  0 mm
07:29 66.5 °F /  19.2 °C 57.6 °F /  14.2 °C 30.00 in /  1015.8 hPa NW 2.8 mph /  4.5 km/h 9.2 mph /  14.8 km/h 73 % 0.00 in /  0 mm
07:34 66.6 °F /  19.2 °C 57.3 °F /  14.1 °C 30.00 in /  1015.8 hPa West 2.8 mph /  4.5 km/h 8.0 mph /  12.9 km/h 72 % 0.00 in /  0 mm
07:39 66.7 °F /  19.3 °C 57.8 °F /  14.3 °C 30.00 in /  1015.8 hPa WNW 3.3 mph /  5.3 km/h 8.1 mph /  13 km/h 73 % 0.00 in /  0 mm
07:42 66.7 °F /  19.3 °C 57.8 °F /  14.3 °C 30.01 in /  1016.1 hPa West 0.5 mph /  0.8 km/h 3.5 mph /  5.6 km/h 73 % 0.00 in /  0 mm
07:47 66.7 °F /  19.3 °C 57.4 °F /  14.1 °C 30.01 in /  1016.1 hPa WSW 5.4 mph /  8.7 km/h 10.4 mph /  16.7 km/h 72 % 0.00 in /  0 mm
07:52 66.7 °F /  19.3 °C 57.4 °F /  14.1 °C 30.01 in /  1016.1 hPa West 2.1 mph /  3.4 km/h 6.9 mph /  11.1 km/h 72 % 0.00 in /  0 mm
07:57 66.7 °F /  19.3 °C 57.4 °F /  14.1 °C 30.01 in /  1016.1 hPa North 3.3 mph /  5.3 km/h 8.1 mph /  13 km/h 72 % 0.00 in /  0 mm
08:02 66.7 °F /  19.3 °C 57.4 °F /  14.1 °C 30.01 in /  1016.1 hPa NW 3.8 mph /  6.1 km/h 9.2 mph /  14.8 km/h 72 % 0.00 in /  0 mm
08:07 66.8 °F /  19.3 °C 57.5 °F /  14.2 °C 30.02 in /  1016.5 hPa West 6.8 mph /  10.9 km/h 9.2 mph /  14.8 km/h 72 % 0.00 in /  0 mm
08:12 66.8 °F /  19.3 °C 57.1 °F /  13.9 °C 30.02 in /  1016.5 hPa West 2.8 mph /  4.5 km/h 3.5 mph /  5.6 km/h 71 % 0.00 in /  0 mm
08:17 66.8 °F /  19.3 °C 57.1 °F /  13.9 °C 30.02 in /  1016.5 hPa WNW 3.8 mph /  6.1 km/h 6.0 mph /  9.7 km/h 71 % 0.00 in /  0 mm
08:22 66.8 °F /  19.3 °C 57.5 °F /  14.2 °C 30.02 in /  1016.5 hPa WNW 1.9 mph /  3.1 km/h 6.9 mph /  11.1 km/h 72 % 0.00 in /  0 mm
08:27 66.9 °F /  19.4 °C 57.2 °F /  14 °C 30.02 in /  1016.5 hPa West 5.3 mph /  8.5 km/h 8.0 mph /  12.9 km/h 71 % 0.00 in /  0 mm
08:32 67.0 °F /  19.4 °C 56.9 °F /  13.8 °C 30.02 in /  1016.5 hPa WNW 1.9 mph /  3.1 km/h 4.6 mph /  7.4 km/h 70 % 0.00 in /  0 mm
08:37 67.0 °F /  19.4 °C 56.9 °F /  13.8 °C 30.02 in /  1016.5 hPa NNW 0.3 mph /  0.5 km/h 4.6 mph /  7.4 km/h 70 % 0.00 in /  0 mm
08:43 67.1 °F /  19.5 °C 57.0 °F /  13.9 °C 30.02 in /  1016.5 hPa WNW 3.3 mph /  5.3 km/h 5.8 mph /  9.3 km/h 70 % 0.00 in /  0 mm
08:48 67.2 °F /  19.6 °C 57.1 °F /  13.9 °C 30.02 in /  1016.5 hPa NW 1.7 mph /  2.7 km/h 4.6 mph /  7.4 km/h 70 % 0.00 in /  0 mm
08:53 67.3 °F /  19.6 °C 57.2 °F /  14 °C 30.03 in /  1016.8 hPa NW 2.1 mph /  3.4 km/h 6.9 mph /  11.1 km/h 70 % 0.00 in /  0 mm
08:58 67.4 °F /  19.7 °C 57.3 °F /  14.1 °C 30.03 in /  1016.8 hPa West 0.7 mph /  1.1 km/h 5.0 mph /  8 km/h 70 % 0.00 in /  0 mm
09:03 67.6 °F /  19.8 °C 57.5 °F /  14.2 °C 30.03 in /  1016.8 hPa NW 0.1 mph /  0.2 km/h 3.5 mph /  5.6 km/h 70 % 0.00 in /  0 mm
09:08 67.8 °F /  19.9 °C 57.7 °F /  14.3 °C 30.02 in /  1016.5 hPa WNW 3.2 mph /  5.1 km/h 5.8 mph /  9.3 km/h 70 % 0.00 in /  0 mm
09:13 68.0 °F /  20 °C 57.0 °F /  13.9 °C 30.03 in /  1016.8 hPa West 0.3 mph /  0.5 km/h 4.6 mph /  7.4 km/h 68 % 0.00 in /  0 mm
09:18 68.3 °F /  20.2 °C 58.1 °F /  14.5 °C 30.03 in /  1016.8 hPa NE 1.0 mph /  1.6 km/h 3.0 mph /  4.8 km/h 70 % 0.00 in /  0 mm
09:23 68.5 °F /  20.3 °C 57.5 °F /  14.2 °C 30.03 in /  1016.8 hPa NW 2.6 mph /  4.2 km/h 6.9 mph /  11.1 km/h 68 % 0.00 in /  0 mm
09:28 68.8 °F /  20.4 °C 57.0 °F /  13.9 °C 30.03 in /  1016.8 hPa WNW 3.5 mph /  5.6 km/h 6.9 mph /  11.1 km/h 66 % 0.00 in /  0 mm
09:33 69.0 °F /  20.6 °C 58.0 °F /  14.4 °C 30.03 in /  1016.8 hPa North 1.6 mph /  2.6 km/h 9.2 mph /  14.8 km/h 68 % 0.00 in /  0 mm
09:38 69.3 °F /  20.7 °C 57.5 °F /  14.2 °C 30.03 in /  1016.8 hPa WNW 2.7 mph /  4.3 km/h 3.5 mph /  5.6 km/h 66 % 0.00 in /  0 mm
09:43 69.5 °F /  20.8 °C 57.6 °F /  14.2 °C 30.03 in /  1016.8 hPa West 0.3 mph /  0.5 km/h 3.5 mph /  5.6 km/h 66 % 0.00 in /  0 mm
09:49 69.9 °F /  21.1 °C 58.9 °F /  14.9 °C 30.04 in /  1017.2 hPa North 0.4 mph /  0.6 km/h 2.3 mph /  3.7 km/h 68 % 0.00 in /  0 mm
09:54 70.2 °F /  21.2 °C 58.7 °F /  14.8 °C 30.04 in /  1017.2 hPa NW 0.5 mph /  0.8 km/h 2.3 mph /  3.7 km/h 67 % 0.00 in /  0 mm
09:59 70.5 °F /  21.4 °C 58.6 °F /  14.8 °C 30.04 in /  1017.2 hPa West 1.5 mph /  2.4 km/h 4.0 mph /  6.4 km/h 66 % 0.00 in /  0 mm
10:04 70.8 °F /  21.6 °C 58.0 °F /  14.4 °C 30.04 in /  1017.2 hPa NNW 2.7 mph /  4.3 km/h 5.8 mph /  9.3 km/h 64 % 0.00 in /  0 mm
10:09 71.1 °F /  21.7 °C 57.4 °F /  14.1 °C 30.04 in /  1017.2 hPa WNW 4.3 mph /  6.9 km/h 8.1 mph /  13 km/h 62 % 0.00 in /  0 mm
10:19 72.1 °F /  22.3 °C 58.4 °F /  14.7 °C 30.04 in /  1017.2 hPa NW 1.5 mph /  2.4 km/h 4.6 mph /  7.4 km/h 62 % 0.00 in /  0 mm
10:24 72.7 °F /  22.6 °C 58.5 °F /  14.7 °C 30.04 in /  1017.2 hPa WNW 4.2 mph /  6.8 km/h 9.2 mph /  14.8 km/h 61 % 0.00 in /  0 mm
10:29 73.4 °F /  23 °C 60.0 °F /  15.6 °C 30.04 in /  1017.2 hPa NW 0.7 mph /  1.1 km/h 6.9 mph /  11.1 km/h 63 % 0.00 in /  0 mm
10:34 74.2 °F /  23.4 °C 59.4 °F /  15.2 °C 30.04 in /  1017.2 hPa WNW 2.7 mph /  4.3 km/h 6.9 mph /  11.1 km/h 60 % 0.00 in /  0 mm
10:39 74.6 °F /  23.7 °C 57.9 °F /  14.4 °C 30.04 in /  1017.2 hPa NW 2.2 mph /  3.5 km/h 4.6 mph /  7.4 km/h 56 % 0.00 in /  0 mm
10:44 74.7 °F /  23.7 °C 58.5 °F /  14.7 °C 30.04 in /  1017.2 hPa West 2.6 mph /  4.2 km/h 6.0 mph /  9.7 km/h 57 % 0.00 in /  0 mm
10:49 74.7 °F /  23.7 °C 58.5 °F /  14.7 °C 30.04 in /  1017.2 hPa NW 1.7 mph /  2.7 km/h 5.0 mph /  8 km/h 57 % 0.00 in /  0 mm
10:54 74.8 °F /  23.8 °C 58.5 °F /  14.7 °C 30.04 in /  1017.2 hPa WNW 4.5 mph /  7.2 km/h 10.4 mph /  16.7 km/h 57 % 0.00 in /  0 mm
10:59 74.8 °F /  23.8 °C 58.5 °F /  14.7 °C 30.04 in /  1017.2 hPa WNW 2.4 mph /  3.9 km/h 6.9 mph /  11.1 km/h 57 % 0.00 in /  0 mm
11:04 74.8 °F /  23.8 °C 58.1 °F /  14.5 °C 30.04 in /  1017.2 hPa WNW 4.7 mph /  7.6 km/h 8.1 mph /  13 km/h 56 % 0.00 in /  0 mm
11:09 75.2 °F /  24 °C 59.9 °F /  15.5 °C 30.04 in /  1017.2 hPa WSW 2.2 mph /  3.5 km/h 6.0 mph /  9.7 km/h 59 % 0.00 in /  0 mm
11:14 75.6 °F /  24.2 °C 59.3 °F /  15.2 °C 30.03 in /  1016.8 hPa NNE 3.2 mph /  5.1 km/h 4.0 mph /  6.4 km/h 57 % 0.00 in /  0 mm
11:19 75.8 °F /  24.3 °C 59.5 °F /  15.3 °C 30.04 in /  1017.2 hPa NW 2.5 mph /  4 km/h 9.2 mph /  14.8 km/h 57 % 0.00 in /  0 mm
11:24 75.8 °F /  24.3 °C 60.4 °F /  15.8 °C 30.04 in /  1017.2 hPa West 1.5 mph /  2.4 km/h 4.0 mph /  6.4 km/h 59 % 0.00 in /  0 mm
11:29 75.8 °F /  24.3 °C 59.0 °F /  15 °C 30.04 in /  1017.2 hPa NW 0.9 mph /  1.4 km/h 3.5 mph /  5.6 km/h 56 % 0.00 in /  0 mm
11:34 75.7 °F /  24.3 °C 59.4 °F /  15.2 °C 30.04 in /  1017.2 hPa NW 4.1 mph /  6.6 km/h 9.2 mph /  14.8 km/h 57 % 0.00 in /  0 mm
11:39 75.7 °F /  24.3 °C 59.4 °F /  15.2 °C 30.04 in /  1017.2 hPa NNW 5.4 mph /  8.7 km/h 10.4 mph /  16.7 km/h 57 % 0.00 in /  0 mm
11:44 75.7 °F /  24.3 °C 58.9 °F /  14.9 °C 30.04 in /  1017.2 hPa West 3.7 mph /  6 km/h 4.6 mph /  7.4 km/h 56 % 0.00 in /  0 mm
11:49 75.7 °F /  24.3 °C 60.4 °F /  15.8 °C 30.04 in /  1017.2 hPa WNW 1.3 mph /  2.1 km/h 4.0 mph /  6.4 km/h 59 % 0.00 in /  0 mm
11:54 75.8 °F /  24.3 °C 59.0 °F /  15 °C 30.03 in /  1016.8 hPa West 2.4 mph /  3.9 km/h 4.6 mph /  7.4 km/h 56 % 0.00 in /  0 mm
11:59 76.1 °F /  24.5 °C 59.3 °F /  15.2 °C 30.03 in /  1016.8 hPa WNW 1.4 mph /  2.3 km/h 6.0 mph /  9.7 km/h 56 % 0.00 in /  0 mm
12:04 76.4 °F /  24.7 °C 59.0 °F /  15 °C 30.03 in /  1016.8 hPa SW 2.1 mph /  3.4 km/h 5.8 mph /  9.3 km/h 55 % 0.00 in /  0 mm
12:09 76.6 °F /  24.8 °C 60.2 °F /  15.7 °C 30.03 in /  1016.8 hPa SSW 4.7 mph /  7.6 km/h 6.9 mph /  11.1 km/h 57 % 0.00 in /  0 mm
12:14 76.8 °F /  24.9 °C 57.8 °F /  14.3 °C 30.03 in /  1016.8 hPa NNW 1.9 mph /  3.1 km/h 3.5 mph /  5.6 km/h 52 % 0.00 in /  0 mm
12:19 76.9 °F /  24.9 °C 60.0 °F /  15.6 °C 30.03 in /  1016.8 hPa WSW 4.2 mph /  6.8 km/h 10.4 mph /  16.7 km/h 56 % 0.00 in /  0 mm
12:29 77.0 °F /  25 °C 59.1 °F /  15.1 °C 30.04 in /  1017.2 hPa WNW 4.1 mph /  6.6 km/h 7.0 mph /  11.3 km/h 54 % 0.00 in /  0 mm
12:34 76.9 °F /  24.9 °C 58.5 °F /  14.7 °C 30.04 in /  1017.2 hPa West 5.3 mph /  8.5 km/h 5.8 mph /  9.3 km/h 53 % 0.00 in /  0 mm
12:40 76.8 °F /  24.9 °C 59.4 °F /  15.2 °C 30.04 in /  1017.2 hPa WNW 4.1 mph /  6.6 km/h 5.8 mph /  9.3 km/h 55 % 0.00 in /  0 mm
12:45 76.8 °F /  24.9 °C 58.4 °F /  14.7 °C 30.04 in /  1017.2 hPa NW 4.5 mph /  7.2 km/h 6.9 mph /  11.1 km/h 53 % 0.00 in /  0 mm
12:50 77.3 °F /  25.2 °C 60.9 °F /  16.1 °C 30.04 in /  1017.2 hPa West 1.8 mph /  2.9 km/h 3.5 mph /  5.6 km/h 57 % 0.00 in /  0 mm
12:55 77.8 °F /  25.4 °C 59.8 °F /  15.4 °C 30.04 in /  1017.2 hPa WSW 2.5 mph /  4 km/h 6.9 mph /  11.1 km/h 54 % 0.00 in /  0 mm
13:00 77.9 °F /  25.5 °C 58.9 °F /  14.9 °C 30.04 in /  1017.2 hPa West 4.1 mph /  6.6 km/h 9.2 mph /  14.8 km/h 52 % 0.00 in /  0 mm
13:05 78.0 °F /  25.6 °C 58.4 °F /  14.7 °C 30.03 in /  1016.8 hPa SW 6.4 mph /  10.3 km/h 10.4 mph /  16.7 km/h 51 % 0.00 in /  0 mm
13:10 77.9 °F /  25.5 °C 58.9 °F /  14.9 °C 30.03 in /  1016.8 hPa WSW 1.0 mph /  1.6 km/h 2.3 mph /  3.7 km/h 52 % 0.00 in /  0 mm
13:15 77.8 °F /  25.4 °C 58.8 °F /  14.9 °C 30.03 in /  1016.8 hPa SW 3.5 mph /  5.6 km/h 5.8 mph /  9.3 km/h 52 % 0.00 in /  0 mm
13:20 77.6 °F /  25.3 °C 58.0 °F /  14.4 °C 30.03 in /  1016.8 hPa West 3.1 mph /  5 km/h 8.1 mph /  13 km/h 51 % 0.00 in /  0 mm
13:25 77.3 °F /  25.2 °C 57.8 °F /  14.3 °C 30.04 in /  1017.2 hPa WNW 1.8 mph /  2.9 km/h 6.0 mph /  9.7 km/h 51 % 0.00 in /  0 mm
13:30 77.1 °F /  25.1 °C 57.0 °F /  13.9 °C 30.04 in /  1017.2 hPa WNW 5.4 mph /  8.7 km/h 9.2 mph /  14.8 km/h 50 % 0.00 in /  0 mm
13:35 76.9 °F /  24.9 °C 58.5 °F /  14.7 °C 30.04 in /  1017.2 hPa WNW 3.9 mph /  6.3 km/h 8.1 mph /  13 km/h 53 % 0.00 in /  0 mm
13:40 76.9 °F /  24.9 °C 59.5 °F /  15.3 °C 30.04 in /  1017.2 hPa WSW 3.8 mph /  6.1 km/h 4.6 mph /  7.4 km/h 55 % 0.00 in /  0 mm
13:45 77.0 °F /  25 °C 59.6 °F /  15.3 °C 30.04 in /  1017.2 hPa West 3.1 mph /  5 km/h 10.4 mph /  16.7 km/h 55 % 0.00 in /  0 mm
13:50 77.0 °F /  25 °C 59.1 °F /  15.1 °C 30.04 in /  1017.2 hPa SSW 2.8 mph /  4.5 km/h 6.9 mph /  11.1 km/h 54 % 0.00 in /  0 mm
13:55 77.1 °F /  25.1 °C 58.6 °F /  14.8 °C 30.04 in /  1017.2 hPa NW 3.5 mph /  5.6 km/h 6.9 mph /  11.1 km/h 53 % 0.00 in /  0 mm
14:01 77.2 °F /  25.1 °C 58.7 °F /  14.8 °C 30.04 in /  1017.2 hPa West 2.9 mph /  4.7 km/h 6.9 mph /  11.1 km/h 53 % 0.00 in /  0 mm
14:11 77.8 °F /  25.4 °C 58.8 °F /  14.9 °C 30.03 in /  1016.8 hPa WSW 2.6 mph /  4.2 km/h 8.1 mph /  13 km/h 52 % 0.00 in /  0 mm
14:16 78.2 °F /  25.7 °C 60.2 °F /  15.7 °C 30.03 in /  1016.8 hPa WSW 2.4 mph /  3.9 km/h 9.2 mph /  14.8 km/h 54 % 0.00 in /  0 mm
14:21 78.3 °F /  25.7 °C 57.6 °F /  14.2 °C 30.03 in /  1016.8 hPa SSW 3.2 mph /  5.1 km/h 6.9 mph /  11.1 km/h 49 % 0.00 in /  0 mm
14:26 78.1 °F /  25.6 °C 59.0 °F /  15 °C 30.03 in /  1016.8 hPa SW 4.1 mph /  6.6 km/h 6.9 mph /  11.1 km/h 52 % 0.01 in /  0.25 mm
14:31 77.8 °F /  25.4 °C 58.8 °F /  14.9 °C 30.03 in /  1016.8 hPa WSW 3.7 mph /  6 km/h 5.8 mph /  9.3 km/h 52 % 0.01 in /  0.25 mm
14:36 77.6 °F /  25.3 °C 58.6 °F /  14.8 °C 30.02 in /  1016.5 hPa WSW 5.5 mph /  8.9 km/h 9.2 mph /  14.8 km/h 52 % 0.01 in /  0.25 mm
14:41 77.5 °F /  25.3 °C 59.0 °F /  15 °C 30.02 in /  1016.5 hPa WNW 3.5 mph /  5.6 km/h 5.8 mph /  9.3 km/h 53 % 0.01 in /  0.25 mm
14:46 77.4 °F /  25.2 °C 58.9 °F /  14.9 °C 30.02 in /  1016.5 hPa West 3.9 mph /  6.3 km/h 6.9 mph /  11.1 km/h 53 % 0.01 in /  0.25 mm
14:51 77.3 °F /  25.2 °C 59.9 °F /  15.5 °C 30.02 in /  1016.5 hPa NNW 1.1 mph /  1.8 km/h 3.5 mph /  5.6 km/h 55 % 0.01 in /  0.25 mm
15:01 76.8 °F /  24.9 °C 57.3 °F /  14.1 °C 30.03 in /  1016.8 hPa West 5.4 mph /  8.7 km/h 9.0 mph /  14.5 km/h 51 % 0.01 in /  0.25 mm
15:06 76.4 °F /  24.7 °C 57.5 °F /  14.2 °C 30.02 in /  1016.5 hPa West 3.4 mph /  5.5 km/h 5.0 mph /  8 km/h 52 % 0.01 in /  0.25 mm
15:11 76.3 °F /  24.6 °C 57.9 °F /  14.4 °C 30.02 in /  1016.5 hPa SW 3.1 mph /  5 km/h 5.0 mph /  8 km/h 53 % 0.01 in /  0.25 mm
15:16 76.1 °F /  24.5 °C 58.2 °F /  14.6 °C 30.02 in /  1016.5 hPa West 1.2 mph /  1.9 km/h 3.0 mph /  4.8 km/h 54 % 0.01 in /  0.25 mm
15:22 75.9 °F /  24.4 °C 58.1 °F /  14.5 °C 30.02 in /  1016.5 hPa WNW 1.5 mph /  2.4 km/h 4.6 mph /  7.4 km/h 54 % 0.01 in /  0.25 mm
15:27 75.8 °F /  24.3 °C 58.0 °F /  14.4 °C 30.02 in /  1016.5 hPa West 0.4 mph /  0.6 km/h 4.6 mph /  7.4 km/h 54 % 0.00 in /  0 mm
15:32 75.8 °F /  24.3 °C 58.5 °F /  14.7 °C 30.02 in /  1016.5 hPa SW 3.4 mph /  5.5 km/h 5.8 mph /  9.3 km/h 55 % 0.00 in /  0 mm
15:37 75.9 °F /  24.4 °C 58.6 °F /  14.8 °C 30.02 in /  1016.5 hPa SW 2.5 mph /  4 km/h 6.9 mph /  11.1 km/h 55 % 0.00 in /  0 mm
15:42 75.9 °F /  24.4 °C 58.6 °F /  14.8 °C 30.03 in /  1016.8 hPa West 1.8 mph /  2.9 km/h 3.5 mph /  5.6 km/h 55 % 0.00 in /  0 mm
15:47 75.8 °F /  24.3 °C 58.0 °F /  14.4 °C 30.02 in /  1016.5 hPa West 3.4 mph /  5.5 km/h 4.6 mph /  7.4 km/h 54 % 0.00 in /  0 mm
15:52 75.7 °F /  24.3 °C 57.4 °F /  14.1 °C 30.02 in /  1016.5 hPa West 2.7 mph /  4.3 km/h 4.6 mph /  7.4 km/h 53 % 0.00 in /  0 mm
15:57 75.6 °F /  24.2 °C 58.3 °F /  14.6 °C 30.02 in /  1016.5 hPa WNW 0.7 mph /  1.1 km/h 3.5 mph /  5.6 km/h 55 % 0.00 in /  0 mm
16:02 75.5 °F /  24.2 °C 58.2 °F /  14.6 °C 30.02 in /  1016.5 hPa WNW 3.2 mph /  5.1 km/h 5.0 mph /  8 km/h 55 % 0.00 in /  0 mm
16:07 75.4 °F /  24.1 °C 58.1 °F /  14.5 °C 30.02 in /  1016.5 hPa SW 3.6 mph /  5.8 km/h 8.1 mph /  13 km/h 55 % 0.00 in /  0 mm
16:12 75.3 °F /  24.1 °C 58.0 °F /  14.4 °C 30.02 in /  1016.5 hPa WNW 1.4 mph /  2.3 km/h 3.5 mph /  5.6 km/h 55 % 0.00 in /  0 mm
16:17 75.2 °F /  24 °C 58.4 °F /  14.7 °C 30.03 in /  1016.8 hPa WSW 3.0 mph /  4.8 km/h 5.8 mph /  9.3 km/h 56 % 0.00 in /  0 mm
16:22 75.5 °F /  24.2 °C 61.1 °F /  16.2 °C 30.03 in /  1016.8 hPa NNW 3.4 mph /  5.5 km/h 6.9 mph /  11.1 km/h 61 % 0.00 in /  0 mm
16:27 75.7 °F /  24.3 °C 58.4 °F /  14.7 °C 30.02 in /  1016.5 hPa West 3.0 mph /  4.8 km/h 4.6 mph /  7.4 km/h 55 % 0.00 in /  0 mm
16:32 75.8 °F /  24.3 °C 59.0 °F /  15 °C 30.03 in /  1016.8 hPa WNW 1.5 mph /  2.4 km/h 4.6 mph /  7.4 km/h 56 % 0.00 in /  0 mm
16:37 75.9 °F /  24.4 °C 58.6 °F /  14.8 °C 30.02 in /  1016.5 hPa NW 1.6 mph /  2.6 km/h 4.0 mph /  6.4 km/h 55 % 0.00 in /  0 mm
16:42 76.1 °F /  24.5 °C 59.3 °F /  15.2 °C 30.02 in /  1016.5 hPa WNW 2.2 mph /  3.5 km/h 4.0 mph /  6.4 km/h 56 % 0.00 in /  0 mm
16:47 76.4 °F /  24.7 °C 58.5 °F /  14.7 °C 30.03 in /  1016.8 hPa NW 3.1 mph /  5 km/h 5.0 mph /  8 km/h 54 % 0.00 in /  0 mm
16:52 76.7 °F /  24.8 °C 57.7 °F /  14.3 °C 30.03 in /  1016.8 hPa West 4.2 mph /  6.8 km/h 6.0 mph /  9.7 km/h 52 % 0.00 in /  0 mm
16:57 77.1 °F /  25.1 °C 58.6 °F /  14.8 °C 30.03 in /  1016.8 hPa West 0.6 mph /  1 km/h 5.8 mph /  9.3 km/h 53 % 0.00 in /  0 mm
17:02 77.4 °F /  25.2 °C 58.4 °F /  14.7 °C 30.03 in /  1016.8 hPa SW 2.3 mph /  3.7 km/h 3.5 mph /  5.6 km/h 52 % 0.00 in /  0 mm
17:06 77.4 °F /  25.2 °C 57.3 °F /  14.1 °C 30.02 in /  1016.5 hPa WNW 2.6 mph /  4.2 km/h 4.6 mph /  7.4 km/h 50 % 0.00 in /  0 mm
17:11 77.4 °F /  25.2 °C 58.9 °F /  14.9 °C 30.03 in /  1016.8 hPa West 2.4 mph /  3.9 km/h 3.5 mph /  5.6 km/h 53 % 0.00 in /  0 mm
17:16 77.4 °F /  25.2 °C 57.9 °F /  14.4 °C 30.03 in /  1016.8 hPa West 1.0 mph /  1.6 km/h 3.5 mph /  5.6 km/h 51 % 0.00 in /  0 mm
17:22 77.4 °F /  25.2 °C 58.9 °F /  14.9 °C 30.03 in /  1016.8 hPa West 1.9 mph /  3.1 km/h 6.9 mph /  11.1 km/h 53 % 0.00 in /  0 mm
17:27 77.3 °F /  25.2 °C 59.4 °F /  15.2 °C 30.03 in /  1016.8 hPa SW 5.5 mph /  8.9 km/h 7.0 mph /  11.3 km/h 54 % 0.00 in /  0 mm
17:32 77.0 °F /  25 °C 58.6 °F /  14.8 °C 30.03 in /  1016.8 hPa WSW 1.5 mph /  2.4 km/h 4.0 mph /  6.4 km/h 53 % 0.00 in /  0 mm
17:37 76.9 °F /  24.9 °C 58.5 °F /  14.7 °C 30.03 in /  1016.8 hPa SW 0.9 mph /  1.4 km/h 3.5 mph /  5.6 km/h 53 % 0.00 in /  0 mm
17:41 76.8 °F /  24.9 °C 58.9 °F /  14.9 °C 30.02 in /  1016.5 hPa SW 1.8 mph /  2.9 km/h 6.0 mph /  9.7 km/h 54 % 0.00 in /  0 mm
17:46 76.6 °F /  24.8 °C 58.7 °F /  14.8 °C 30.03 in /  1016.8 hPa WSW 2.5 mph /  4 km/h 4.0 mph /  6.4 km/h 54 % 0.00 in /  0 mm
17:51 76.4 °F /  24.7 °C 58.0 °F /  14.4 °C 30.03 in /  1016.8 hPa West 2.2 mph /  3.5 km/h 6.0 mph /  9.7 km/h 53 % 0.00 in /  0 mm
17:57 76.2 °F /  24.6 °C 59.4 °F /  15.2 °C 30.02 in /  1016.5 hPa SW 1.7 mph /  2.7 km/h 2.3 mph /  3.7 km/h 56 % 0.00 in /  0 mm
18:02 76.0 °F /  24.4 °C 58.7 °F /  14.8 °C 30.03 in /  1016.8 hPa WSW 3.4 mph /  5.5 km/h 4.0 mph /  6.4 km/h 55 % 0.00 in /  0 mm
18:07 75.8 °F /  24.3 °C 58.5 °F /  14.7 °C 30.02 in /  1016.5 hPa WSW 1.6 mph /  2.6 km/h 4.0 mph /  6.4 km/h 55 % 0.00 in /  0 mm
18:12 75.6 °F /  24.2 °C 58.3 °F /  14.6 °C 30.02 in /  1016.5 hPa WSW 1.7 mph /  2.7 km/h 8.1 mph /  13 km/h 55 % 0.00 in /  0 mm
18:17 75.5 °F /  24.2 °C 58.2 °F /  14.6 °C 30.03 in /  1016.8 hPa WNW 0.7 mph /  1.1 km/h 3.5 mph /  5.6 km/h 55 % 0.00 in /  0 mm
18:22 75.3 °F /  24.1 °C 58.5 °F /  14.7 °C 30.02 in /  1016.5 hPa SW 1.9 mph /  3.1 km/h 3.5 mph /  5.6 km/h 56 % 0.00 in /  0 mm
18:27 75.2 °F /  24 °C 58.4 °F /  14.7 °C 30.02 in /  1016.5 hPa WSW 2.7 mph /  4.3 km/h 4.6 mph /  7.4 km/h 56 % 0.00 in /  0 mm
18:32 75.1 °F /  23.9 °C 58.3 °F /  14.6 °C 30.02 in /  1016.5 hPa SW 2.1 mph /  3.4 km/h 3.5 mph /  5.6 km/h 56 % 0.00 in /  0 mm
18:37 75.0 °F /  23.9 °C 58.7 °F /  14.8 °C 30.03 in /  1016.8 hPa SW 2.3 mph /  3.7 km/h 4.6 mph /  7.4 km/h 57 % 0.00 in /  0 mm
18:42 74.8 °F /  23.8 °C 58.5 °F /  14.7 °C 30.03 in /  1016.8 hPa WSW 1.8 mph /  2.9 km/h 3.5 mph /  5.6 km/h 57 % 0.00 in /  0 mm
18:47 74.8 °F /  23.8 °C 59.0 °F /  15 °C 30.03 in /  1016.8 hPa SW 2.3 mph /  3.7 km/h 3.5 mph /  5.6 km/h 58 % 0.00 in /  0 mm
18:52 74.6 °F /  23.7 °C 58.8 °F /  14.9 °C 30.02 in /  1016.5 hPa West 0.1 mph /  0.2 km/h 2.3 mph /  3.7 km/h 58 % 0.00 in /  0 mm
18:57 74.5 °F /  23.6 °C 58.8 °F /  14.9 °C 30.03 in /  1016.8 hPa West 0.2 mph /  0.3 km/h 2.3 mph /  3.7 km/h 58 % 0.00 in /  0 mm
19:02 74.4 °F /  23.6 °C 58.7 °F /  14.8 °C 30.03 in /  1016.8 hPa WSW 0.4 mph /  0.6 km/h 2.3 mph /  3.7 km/h 58 % 0.00 in /  0 mm
19:07 74.3 °F /  23.5 °C 58.6 °F /  14.8 °C 30.03 in /  1016.8 hPa WSW 1.7 mph /  2.7 km/h 2.3 mph /  3.7 km/h 58 % 0.00 in /  0 mm
19:12 74.2 °F /  23.4 °C 58.9 °F /  14.9 °C 30.03 in /  1016.8 hPa Calm     59 % 0.00 in /  0 mm
19:17 74.0 °F /  23.3 °C 58.8 °F /  14.9 °C 30.03 in /  1016.8 hPa WSW 0.3 mph /  0.5 km/h 1.2 mph /  1.9 km/h 59 % 0.00 in /  0 mm
19:22 73.9 °F /  23.3 °C 59.1 °F /  15.1 °C 30.03 in /  1016.8 hPa Calm   3.0 mph /  4.8 km/h 60 % 0.00 in /  0 mm
19:27 73.7 °F /  23.2 °C 58.9 °F /  14.9 °C 30.03 in /  1016.8 hPa WSW 1.8 mph /  2.9 km/h 3.5 mph /  5.6 km/h 60 % 0.00 in /  0 mm
19:32 73.5 °F /  23.1 °C 58.8 °F /  14.9 °C 30.03 in /  1016.8 hPa Calm     60 % 0.00 in /  0 mm
19:37 73.4 °F /  23 °C 59.6 °F /  15.3 °C 30.03 in /  1016.8 hPa Calm     62 % 0.00 in /  0 mm
19:42 73.2 °F /  22.9 °C 59.8 °F /  15.4 °C 30.04 in /  1017.2 hPa WSW 0.1 mph /  0.2 km/h 1.2 mph /  1.9 km/h 63 % 0.00 in /  0 mm
19:48 73.0 °F /  22.8 °C 59.7 °F /  15.4 °C 30.04 in /  1017.2 hPa WSW 0.1 mph /  0.2 km/h 1.2 mph /  1.9 km/h 63 % 0.00 in /  0 mm
19:53 72.7 °F /  22.6 °C 59.4 °F /  15.2 °C 30.04 in /  1017.2 hPa Calm   1.2 mph /  1.9 km/h 63 % 0.00 in /  0 mm
19:58 72.5 °F /  22.5 °C 59.6 °F /  15.3 °C 30.04 in /  1017.2 hPa WSW 0.5 mph /  0.8 km/h 1.0 mph /  1.6 km/h 64 % 0.00 in /  0 mm
20:08 72.0 °F /  22.2 °C 59.6 °F /  15.3 °C 30.04 in /  1017.2 hPa Calm     65 % 0.00 in /  0 mm
20:13 71.8 °F /  22.1 °C 59.4 °F /  15.2 °C 30.04 in /  1017.2 hPa Calm     65 % 0.00 in /  0 mm
20:18 71.6 °F /  22 °C 59.6 °F /  15.3 °C 30.04 in /  1017.2 hPa Calm     66 % 0.00 in /  0 mm
20:23 71.3 °F /  21.8 °C 59.4 °F /  15.2 °C 30.04 in /  1017.2 hPa Calm     66 % 0.00 in /  0 mm
20:33 70.9 °F /  21.6 °C 59.4 °F /  15.2 °C 30.04 in /  1017.2 hPa Calm     67 % 0.00 in /  0 mm
20:38 70.7 °F /  21.5 °C 59.2 °F /  15.1 °C 30.04 in /  1017.2 hPa Calm     67 % 0.00 in /  0 mm
20:43 70.5 °F /  21.4 °C 59.0 °F /  15 °C 30.04 in /  1017.2 hPa Calm     67 % 0.00 in /  0 mm
20:48 70.4 °F /  21.3 °C 58.9 °F /  14.9 °C 30.05 in /  1017.5 hPa Calm     67 % 0.00 in /  0 mm
20:53 70.2 °F /  21.2 °C 59.6 °F /  15.3 °C 30.05 in /  1017.5 hPa Calm     69 % 0.00 in /  0 mm
20:58 69.9 °F /  21.1 °C 59.3 °F /  15.2 °C 30.04 in /  1017.2 hPa Calm     69 % 0.00 in /  0 mm
21:03 69.8 °F /  21 °C 59.6 °F /  15.3 °C 30.04 in /  1017.2 hPa Calm     70 % 0.00 in /  0 mm
21:09 69.5 °F /  20.8 °C 59.3 °F /  15.2 °C 30.05 in /  1017.5 hPa Calm     70 % 0.00 in /  0 mm
21:14 69.3 °F /  20.7 °C 59.1 °F /  15.1 °C 30.05 in /  1017.5 hPa Calm     70 % 0.00 in /  0 mm
21:19 69.0 °F /  20.6 °C 58.8 °F /  14.9 °C 30.05 in /  1017.5 hPa Calm     70 % 0.00 in /  0 mm
21:24 68.8 °F /  20.4 °C 58.6 °F /  14.8 °C 30.05 in /  1017.5 hPa Calm     70 % 0.00 in /  0 mm
21:29 68.6 °F /  20.3 °C 58.8 °F /  14.9 °C 30.05 in /  1017.5 hPa Calm     71 % 0.00 in /  0 mm
21:34 68.4 °F /  20.2 °C 58.6 °F /  14.8 °C 30.05 in /  1017.5 hPa Calm     71 % 0.00 in /  0 mm
21:39 68.2 °F /  20.1 °C 58.4 °F /  14.7 °C 30.05 in /  1017.5 hPa Calm     71 % 0.00 in /  0 mm
21:44 68.0 °F /  20 °C 58.2 °F /  14.6 °C 30.05 in /  1017.5 hPa WSW 0.5 mph /  0.8 km/h 3.5 mph /  5.6 km/h 71 % 0.00 in /  0 mm
21:49 67.8 °F /  19.9 °C 58.1 °F /  14.5 °C 30.05 in /  1017.5 hPa Calm     71 % 0.00 in /  0 mm
21:54 67.7 °F /  19.8 °C 58.0 °F /  14.4 °C 30.05 in /  1017.5 hPa WSW 0.3 mph /  0.5 km/h 1.2 mph /  1.9 km/h 71 % 0.00 in /  0 mm
21:59 67.5 °F /  19.7 °C 57.8 °F /  14.3 °C 30.06 in /  1017.8 hPa Calm   1.2 mph /  1.9 km/h 71 % 0.00 in /  0 mm
22:04 67.4 °F /  19.7 °C 58.1 °F /  14.5 °C 30.05 in /  1017.5 hPa Calm   1.2 mph /  1.9 km/h 72 % 0.00 in /  0 mm
22:09 67.2 °F /  19.6 °C 58.2 °F /  14.6 °C 30.05 in /  1017.5 hPa Calm   1.2 mph /  1.9 km/h 73 % 0.00 in /  0 mm
22:14 67.1 °F /  19.5 °C 58.2 °F /  14.6 °C 30.06 in /  1017.8 hPa Calm     73 % 0.00 in /  0 mm
22:19 67.0 °F /  19.4 °C 58.1 °F /  14.5 °C 30.06 in /  1017.8 hPa Calm     73 % 0.00 in /  0 mm
22:24 66.9 °F /  19.4 °C 58.0 °F /  14.4 °C 30.06 in /  1017.8 hPa Calm   1.0 mph /  1.6 km/h 73 % 0.00 in /  0 mm
22:29 66.7 °F /  19.3 °C 57.8 °F /  14.3 °C 30.06 in /  1017.8 hPa Calm     73 % 0.00 in /  0 mm
22:34 66.6 °F /  19.2 °C 57.7 °F /  14.3 °C 30.06 in /  1017.8 hPa Calm     73 % 0.00 in /  0 mm
22:39 66.5 °F /  19.2 °C 57.6 °F /  14.2 °C 30.06 in /  1017.8 hPa Calm     73 % 0.00 in /  0 mm
22:44 66.4 °F /  19.1 °C 57.5 °F /  14.2 °C 30.07 in /  1018.2 hPa Calm     73 % 0.00 in /  0 mm
22:49 66.3 °F /  19.1 °C 57.4 °F /  14.1 °C 30.06 in /  1017.8 hPa Calm     73 % 0.00 in /  0 mm
22:54 66.2 °F /  19 °C 57.7 °F /  14.3 °C 30.06 in /  1017.8 hPa Calm     74 % 0.00 in /  0 mm
22:59 66.1 °F /  18.9 °C 57.6 °F /  14.2 °C 30.06 in /  1017.8 hPa Calm     74 % 0.00 in /  0 mm
23:09 65.9 °F /  18.8 °C 57.7 °F /  14.3 °C 30.06 in /  1017.8 hPa Calm     75 % 0.00 in /  0 mm
23:15 65.8 °F /  18.8 °C 57.7 °F /  14.3 °C 30.06 in /  1017.8 hPa West 0.9 mph /  1.4 km/h 3.5 mph /  5.6 km/h 75 % 0.00 in /  0 mm
23:20 65.6 °F /  18.7 °C 57.5 °F /  14.2 °C 30.06 in /  1017.8 hPa Calm   1.2 mph /  1.9 km/h 75 % 0.00 in /  0 mm
23:23 65.6 °F /  18.7 °C 57.5 °F /  14.2 °C 30.06 in /  1017.8 hPa SSW 0.1 mph /  0.2 km/h 3.5 mph /  5.6 km/h 75 % 0.00 in /  0 mm
23:28 65.5 °F /  18.6 °C 57.4 °F /  14.1 °C 30.06 in /  1017.8 hPa Calm     75 % 0.00 in /  0 mm
23:33 65.4 °F /  18.6 °C 57.3 °F /  14.1 °C 30.06 in /  1017.8 hPa Calm     75 % 0.00 in /  0 mm
23:38 65.3 °F /  18.5 °C 57.2 °F /  14 °C 30.07 in /  1018.2 hPa Calm     75 % 0.00 in /  0 mm
23:43 65.3 °F /  18.5 °C 57.2 °F /  14 °C 30.07 in /  1018.2 hPa Calm     75 % 0.00 in /  0 mm
23:48 65.2 °F /  18.4 °C 57.1 °F /  13.9 °C 30.07 in /  1018.2 hPa Calm     75 % 0.00 in /  0 mm
23:53 65.1 °F /  18.4 °C 57.3 °F /  14.1 °C 30.07 in /  1018.2 hPa Calm     76 % 0.00 in /  0 mm
23:58 65.1 °F /  18.4 °C 57.3 °F /  14.1 °C 30.07 in /  1018.2 hPa SSW 0.5 mph /  0.8 km/h 2.3 mph /  3.7 km/h 76 % 0.00 in /  0 mm
Crab Meadow Weather
Compliments of Weather Underground - 3 mb

Script developed by  Jim McMurry - jmcmurry@mwt.net Adapted for the template by  Wim van der Kuil - Leuven-Template.eu

Cloud Base: The cloud base is the distance from the sea level to the base of the clouds. It is estimated using the current temperature and humidity to indicate an altitude where the air could be cold enough for clouds to form. There may or may not be clouds at that altitude (or at any altitude)